FGBT

Bata Airport

Equatorial Guinea
METAR FGBT 240300Z 00000KT 9999 SCT008 24/24 Q1010
Observed Flight Rules
Sep-24 @ 03:00 UTC (47 minutes ago) Visual Flight Rules
Visibility Clouds
10,000+ meters
  • Scattered at 800' AGL
Temperatures Readings
Current 24°C / 75°F
Dewpoint 24°C / 75°F
Humidity 100%
Altimeter 29.82" Hg
Pressure 1010 hPa
Elevation 8
METAR FGBT 240300Z 00000KT 9999 SCT008 24/24 Q1010
Observed Flight Rules
Sep-24 @ 03:00 UTC
(47 minutes ago)
VFR
Clouds
  • Scattered at 800' AGL
Temperature Dewpoint
24°C / 75°F 24°C / 75°F
Humidity Altimeter Pressure
100% 29.82" Hg 1010 hPa